sensor_id;sensor_type;location;lat;lon;timestamp;pressure;altitude;pressure_sealevel;temperature;humidity
80410;BME280;69746;45.596;10.154;2023-06-05T00:01:48;99547.28;;;24.78;53.70
80410;BME280;69746;45.596;10.154;2023-06-05T00:04:14;99540.06;;;24.77;53.74
80410;BME280;69746;45.596;10.154;2023-06-05T00:06:40;99550.06;;;24.78;53.87
80410;BME280;69746;45.596;10.154;2023-06-05T00:09:06;99538.09;;;24.78;53.82
80410;BME280;69746;45.596;10.154;2023-06-05T00:11:33;99550.41;;;24.77;53.70
80410;BME280;69746;45.596;10.154;2023-06-05T00:13:58;99541.22;;;24.76;53.85
80410;BME280;69746;45.596;10.154;2023-06-05T00:16:24;99539.25;;;24.77;53.90
80410;BME280;69746;45.596;10.154;2023-06-05T00:18:50;99547.28;;;24.78;53.73
80410;BME280;69746;45.596;10.154;2023-06-05T00:21:23;99545.63;;;24.77;53.86
80410;BME280;69746;45.596;10.154;2023-06-05T00:23:50;99549.59;;;24.76;53.72
80410;BME280;69746;45.596;10.154;2023-06-05T00:26:16;99544.81;;;24.77;53.84
80410;BME280;69746;45.596;10.154;2023-06-05T00:28:43;99541.84;;;24.73;53.78
80410;BME280;69746;45.596;10.154;2023-06-05T00:31:09;99540.72;;;24.74;53.91
80410;BME280;69746;45.596;10.154;2023-06-05T00:33:35;99534.00;;;24.75;53.74
80410;BME280;69746;45.596;10.154;2023-06-05T00:36:04;99539.25;;;24.77;53.84
80410;BME280;69746;45.596;10.154;2023-06-05T00:38:31;99535.63;;;24.76;53.90
80410;BME280;69746;45.596;10.154;2023-06-05T00:40:57;99531.22;;;24.75;53.88
80410;BME280;69746;45.596;10.154;2023-06-05T00:43:23;99532.03;;;24.76;53.95
80410;BME280;69746;45.596;10.154;2023-06-05T00:45:53;99530.06;;;24.76;53.95
80410;BME280;69746;45.596;10.154;2023-06-05T00:48:22;99526.44;;;24.76;53.71
80410;BME280;69746;45.596;10.154;2023-06-05T00:50:48;99526.44;;;24.76;53.72
80410;BME280;69746;45.596;10.154;2023-06-05T00:53:17;99525.63;;;24.75;53.96
80410;BME280;69746;45.596;10.154;2023-06-05T00:55:43;99533.19;;;24.75;53.72
80410;BME280;69746;45.596;10.154;2023-06-05T00:58:09;99528.41;;;24.75;53.94
80410;BME280;69746;45.596;10.154;2023-06-05T01:00:36;99515.13;;;24.72;53.81
80410;BME280;69746;45.596;10.154;2023-06-05T01:03:02;99522.03;;;24.75;53.90
80410;BME280;69746;45.596;10.154;2023-06-05T01:05:31;99522.03;;;24.75;53.85
80410;BME280;69746;45.596;10.154;2023-06-05T01:07:59;99517.25;;;24.75;53.90
80410;BME280;69746;45.596;10.154;2023-06-05T01:10:30;99518.41;;;24.74;54.02
80410;BME280;69746;45.596;10.154;2023-06-05T01:13:23;99520.06;;;24.75;53.82
80410;BME280;69746;45.596;10.154;2023-06-05T01:15:51;99513.50;;;24.71;53.81
80410;BME280;69746;45.596;10.154;2023-06-05T01:18:17;99513.97;;;24.73;53.96
80410;BME280;69746;45.596;10.154;2023-06-05T01:20:47;99518.72;;;24.73;53.86
80410;BME280;69746;45.596;10.154;2023-06-05T01:23:13;99522.34;;;24.73;53.87
80410;BME280;69746;45.596;10.154;2023-06-05T01:25:39;99522.34;;;24.73;53.79
80410;BME280;69746;45.596;10.154;2023-06-05T01:28:16;99522.34;;;24.73;53.80
80410;BME280;69746;45.596;10.154;2023-06-05T01:31:00;99524.31;;;24.73;53.84
80410;BME280;69746;45.596;10.154;2023-06-05T01:33:31;99524.31;;;24.73;53.79
80410;BME280;69746;45.596;10.154;2023-06-05T01:36:11;99530.22;;;24.71;53.94
80410;BME280;69746;45.596;10.154;2023-06-05T01:38:40;99527.09;;;24.73;54.03
80410;BME280;69746;45.596;10.154;2023-06-05T01:41:10;99523.50;;;24.72;53.96
80410;BME280;69746;45.596;10.154;2023-06-05T01:43:38;99525.81;;;24.70;53.98
80410;BME280;69746;45.596;10.154;2023-06-05T01:46:06;99522.34;;;24.73;53.96
80410;BME280;69746;45.596;10.154;2023-06-05T01:48:33;99528.72;;;24.74;53.95
80410;BME280;69746;45.596;10.154;2023-06-05T01:51:01;99529.06;;;24.72;54.03
80410;BME280;69746;45.596;10.154;2023-06-05T01:53:31;99523.50;;;24.72;53.80
80410;BME280;69746;45.596;10.154;2023-06-05T01:55:59;99525.47;;;24.71;54.00
80410;BME280;69746;45.596;10.154;2023-06-05T01:58:26;99521.50;;;24.73;54.10
80410;BME280;69746;45.596;10.154;2023-06-05T02:00:53;99526.28;;;24.72;53.97
80410;BME280;69746;45.596;10.154;2023-06-05T02:03:20;99525.47;;;24.71;53.98
80410;BME280;69746;45.596;10.154;2023-06-05T02:05:46;99519.88;;;24.71;53.96
80410;BME280;69746;45.596;10.154;2023-06-05T02:08:15;99520.69;;;24.72;54.00
80410;BME280;69746;45.596;10.154;2023-06-05T02:10:46;99515.78;;;24.69;53.93
80410;BME280;69746;45.596;10.154;2023-06-05T02:13:12;99528.25;;;24.71;54.05
80410;BME280;69746;45.596;10.154;2023-06-05T02:15:41;99524.16;;;24.69;53.83
80410;BME280;69746;45.596;10.154;2023-06-05T02:18:10;99520.69;;;24.72;54.00
80410;BME280;69746;45.596;10.154;2023-06-05T02:20:36;99520.69;;;24.72;53.77
80410;BME280;69746;45.596;10.154;2023-06-05T02:23:03;99525.47;;;24.71;53.93
80410;BME280;69746;45.596;10.154;2023-06-05T02:25:30;99527.91;;;24.73;53.96
80410;BME280;69746;45.596;10.154;2023-06-05T02:27:57;99529.06;;;24.72;53.74
80410;BME280;69746;45.596;10.154;2023-06-05T02:30:23;99524.66;;;24.71;53.96
80410;BME280;69746;45.596;10.154;2023-06-05T02:32:52;99525.47;;;24.71;53.90
80410;BME280;69746;45.596;10.154;2023-06-05T02:35:26;99524.31;;;24.73;53.84
80410;BME280;69746;45.596;10.154;2023-06-05T02:37:52;99518.59;;;24.69;53.88
80410;BME280;69746;45.596;10.154;2023-06-05T02:40:18;99522.34;;;24.73;54.00
80410;BME280;69746;45.596;10.154;2023-06-05T02:42:44;99520.69;;;24.72;53.84
80410;BME280;69746;45.596;10.154;2023-06-05T02:45:10;99519.88;;;24.71;54.03
80410;BME280;69746;45.596;10.154;2023-06-05T02:47:36;99526.63;;;24.70;53.87
80410;BME280;69746;45.596;10.154;2023-06-05T02:50:02;99522.66;;;24.71;54.05
80410;BME280;69746;45.596;10.154;2023-06-05T02:52:28;99519.88;;;24.71;53.87
80410;BME280;69746;45.596;10.154;2023-06-05T02:54:55;99526.28;;;24.72;53.88
80410;BME280;69746;45.596;10.154;2023-06-05T02:57:21;99528.25;;;24.71;53.98
80410;BME280;69746;45.596;10.154;2023-06-05T02:59:48;99513.50;;;24.71;54.03
80410;BME280;69746;45.596;10.154;2023-06-05T03:02:14;99514.31;;;24.71;54.03
80410;BME280;69746;45.596;10.154;2023-06-05T03:04:43;99519.06;;;24.71;53.82
80410;BME280;69746;45.596;10.154;2023-06-05T03:07:09;99513.50;;;24.71;53.99
80410;BME280;69746;45.596;10.154;2023-06-05T03:09:39;99510.69;;;24.71;54.09
80410;BME280;69746;45.596;10.154;2023-06-05T03:12:04;99510.69;;;24.71;54.10
80410;BME280;69746;45.596;10.154;2023-06-05T03:14:30;99507.91;;;24.71;53.95
80410;BME280;69746;45.596;10.154;2023-06-05T03:16:56;99507.09;;;24.70;53.80
80410;BME280;69746;45.596;10.154;2023-06-05T03:19:25;99501.50;;;24.70;53.92
80410;BME280;69746;45.596;10.154;2023-06-05T03:21:51;99501.50;;;24.70;53.91
80410;BME280;69746;45.596;10.154;2023-06-05T03:24:19;99508.25;;;24.69;54.11
80410;BME280;69746;45.596;10.154;2023-06-05T03:26:51;99494.31;;;24.69;54.01
80410;BME280;69746;45.596;10.154;2023-06-05T03:29:17;99511.03;;;24.69;53.91
80410;BME280;69746;45.596;10.154;2023-06-05T03:31:43;99509.06;;;24.70;53.84
80410;BME280;69746;45.596;10.154;2023-06-05T03:34:09;99509.88;;;24.70;53.91
80410;BME280;69746;45.596;10.154;2023-06-05T03:36:35;99511.03;;;24.69;53.98
80410;BME280;69746;45.596;10.154;2023-06-05T03:39:03;99506.28;;;24.70;53.98
80410;BME280;69746;45.596;10.154;2023-06-05T03:41:29;99504.63;;;24.69;53.96
80410;BME280;69746;45.596;10.154;2023-06-05T03:43:55;99497.78;;;24.66;53.90
80410;BME280;69746;45.596;10.154;2023-06-05T03:46:22;99502.66;;;24.69;54.04
80410;BME280;69746;45.596;10.154;2023-06-05T03:48:49;99511.84;;;24.70;53.83
80410;BME280;69746;45.596;10.154;2023-06-05T03:51:16;99508.25;;;24.69;53.91
80410;BME280;69746;45.596;10.154;2023-06-05T03:53:45;99511.03;;;24.69;53.98
80410;BME280;69746;45.596;10.154;2023-06-05T03:56:12;99511.03;;;24.69;53.88
80410;BME280;69746;45.596;10.154;2023-06-05T03:58:41;99504.63;;;24.69;54.06
80410;BME280;69746;45.596;10.154;2023-06-05T04:01:07;99513.00;;;24.69;53.89
80410;BME280;69746;45.596;10.154;2023-06-05T04:03:34;99500.22;;;24.68;54.01
80410;BME280;69746;45.596;10.154;2023-06-05T04:06:03;99511.84;;;24.70;53.82
80410;BME280;69746;45.596;10.154;2023-06-05T04:08:30;99511.03;;;24.69;54.10
80410;BME280;69746;45.596;10.154;2023-06-05T04:10:56;99516.94;;;24.68;54.04
80410;BME280;69746;45.596;10.154;2023-06-05T04:13:22;99513.00;;;24.69;54.06
80410;BME280;69746;45.596;10.154;2023-06-05T04:15:48;99509.41;;;24.68;54.15
80410;BME280;69746;45.596;10.154;2023-06-05T04:18:15;99507.44;;;24.69;54.00
80410;BME280;69746;45.596;10.154;2023-06-05T04:20:41;99509.41;;;24.68;53.79
80410;BME280;69746;45.596;10.154;2023-06-05T04:23:07;99503.81;;;24.68;53.91
80410;BME280;69746;45.596;10.154;2023-06-05T04:25:36;99504.63;;;24.69;53.94
80410;BME280;69746;45.596;10.154;2023-06-05T04:28:02;99503.00;;;24.68;54.02
80410;BME280;69746;45.596;10.154;2023-06-05T04:30:29;99507.44;;;24.69;53.93
80410;BME280;69746;45.596;10.154;2023-06-05T04:32:55;99507.44;;;24.69;53.82
80410;BME280;69746;45.596;10.154;2023-06-05T04:35:21;99510.22;;;24.69;53.87
80410;BME280;69746;45.596;10.154;2023-06-05T04:37:48;99507.44;;;24.69;54.10
80410;BME280;69746;45.596;10.154;2023-06-05T04:40:17;99499.06;;;24.69;53.81
80410;BME280;69746;45.596;10.154;2023-06-05T04:42:43;99498.25;;;24.68;54.03
80410;BME280;69746;45.596;10.154;2023-06-05T04:45:09;99501.84;;;24.69;53.99
80410;BME280;69746;45.596;10.154;2023-06-05T04:47:35;99502.19;;;24.67;54.10
80410;BME280;69746;45.596;10.154;2023-06-05T04:50:04;99505.78;;;24.68;53.90
80410;BME280;69746;45.596;10.154;2023-06-05T04:52:31;99508.59;;;24.68;53.94
80410;BME280;69746;45.596;10.154;2023-06-05T04:54:57;99501.38;;;24.67;54.12
80410;BME280;69746;45.596;10.154;2023-06-05T04:57:23;99494.16;;;24.66;54.12
80410;BME280;69746;45.596;10.154;2023-06-05T04:59:52;99500.56;;;24.66;54.05
80410;BME280;69746;45.596;10.154;2023-06-05T05:02:17;99503.00;;;24.68;54.10
80410;BME280;69746;45.596;10.154;2023-06-05T05:04:43;99497.44;;;24.68;54.18
80410;BME280;69746;45.596;10.154;2023-06-05T05:07:09;99499.06;;;24.69;54.20
80410;BME280;69746;45.596;10.154;2023-06-05T05:09:41;99511.38;;;24.68;54.03
80410;BME280;69746;45.596;10.154;2023-06-05T05:12:07;99506.94;;;24.67;53.98
80410;BME280;69746;45.596;10.154;2023-06-05T05:14:35;99500.22;;;24.68;53.94
80410;BME280;69746;45.596;10.154;2023-06-05T05:17:01;99505.78;;;24.68;53.96
80410;BME280;69746;45.596;10.154;2023-06-05T05:19:28;99508.59;;;24.68;53.84
80410;BME280;69746;45.596;10.154;2023-06-05T05:21:54;99510.56;;;24.67;53.83
80410;BME280;69746;45.596;10.154;2023-06-05T05:24:20;99514.97;;;24.68;54.02
80410;BME280;69746;45.596;10.154;2023-06-05T05:26:46;99516.94;;;24.68;54.03
80410;BME280;69746;45.596;10.154;2023-06-05T05:29:12;99509.75;;;24.67;54.02
80410;BME280;69746;45.596;10.154;2023-06-05T05:31:38;99518.94;;;24.67;53.96
80410;BME280;69746;45.596;10.154;2023-06-05T05:34:07;99519.75;;;24.68;53.88
80410;BME280;69746;45.596;10.154;2023-06-05T05:36:33;99528.09;;;24.68;54.10
80410;BME280;69746;45.596;10.154;2023-06-05T05:39:07;99528.94;;;24.68;53.87
80410;BME280;69746;45.596;10.154;2023-06-05T05:41:34;99525.31;;;24.68;53.90
80410;BME280;69746;45.596;10.154;2023-06-05T05:44:00;99528.94;;;24.68;53.89
80410;BME280;69746;45.596;10.154;2023-06-05T05:46:26;99530.91;;;24.68;54.05
80410;BME280;69746;45.596;10.154;2023-06-05T05:48:55;99530.91;;;24.68;53.92
80410;BME280;69746;45.596;10.154;2023-06-05T05:51:21;99539.28;;;24.68;54.13
80410;BME280;69746;45.596;10.154;2023-06-05T05:53:48;99532.06;;;24.67;53.99
80410;BME280;69746;45.596;10.154;2023-06-05T05:56:14;99534.84;;;24.67;54.18
80410;BME280;69746;45.596;10.154;2023-06-05T05:58:46;99532.88;;;24.67;54.12
80410;BME280;69746;45.596;10.154;2023-06-05T06:01:12;99534.03;;;24.66;54.09
80410;BME280;69746;45.596;10.154;2023-06-05T06:03:38;99537.63;;;24.67;54.11
80410;BME280;69746;45.596;10.154;2023-06-05T06:06:04;99528.44;;;24.66;54.02
80410;BME280;69746;45.596;10.154;2023-06-05T06:08:34;99533.22;;;24.66;54.21
80410;BME280;69746;45.596;10.154;2023-06-05T06:11:01;99541.56;;;24.66;54.00
80410;BME280;69746;45.596;10.154;2023-06-05T06:13:29;99543.22;;;24.67;54.22
80410;BME280;69746;45.596;10.154;2023-06-05T06:15:55;99532.06;;;24.67;54.12
80410;BME280;69746;45.596;10.154;2023-06-05T06:18:21;99546.00;;;24.67;54.03
80410;BME280;69746;45.596;10.154;2023-06-05T06:20:47;99537.97;;;24.65;53.98
80410;BME280;69746;45.596;10.154;2023-06-05T06:23:13;99545.19;;;24.66;54.11
80410;BME280;69746;45.596;10.154;2023-06-05T06:25:39;99539.59;;;24.66;54.02
80410;BME280;69746;45.596;10.154;2023-06-05T06:28:05;99548.78;;;24.67;54.17
80410;BME280;69746;45.596;10.154;2023-06-05T06:30:35;99546.34;;;24.65;53.97
80410;BME280;69746;45.596;10.154;2023-06-05T06:33:02;99549.94;;;24.66;53.94
80410;BME280;69746;45.596;10.154;2023-06-05T06:35:30;99551.91;;;24.65;54.12
80410;BME280;69746;45.596;10.154;2023-06-05T06:37:58;99542.72;;;24.65;54.03
80410;BME280;69746;45.596;10.154;2023-06-05T06:40:24;99555.88;;;24.64;54.03
80410;BME280;69746;45.596;10.154;2023-06-05T06:42:52;99557.50;;;24.65;54.18
80410;BME280;69746;45.596;10.154;2023-06-05T06:45:19;99552.72;;;24.66;53.95
80410;BME280;69746;45.596;10.154;2023-06-05T06:47:46;99554.72;;;24.65;54.12
80410;BME280;69746;45.596;10.154;2023-06-05T06:50:13;99557.00;;;24.63;54.03
80410;BME280;69746;45.596;10.154;2023-06-05T06:52:40;99557.50;;;24.65;53.97
80410;BME280;69746;45.596;10.154;2023-06-05T06:55:08;99550.28;;;24.64;54.17
80410;BME280;69746;45.596;10.154;2023-06-05T06:57:34;99561.09;;;24.66;54.13
80410;BME280;69746;45.596;10.154;2023-06-05T07:00:00;99559.47;;;24.65;54.12
80410;BME280;69746;45.596;10.154;2023-06-05T07:02:26;99559.47;;;24.65;54.19
80410;BME280;69746;45.596;10.154;2023-06-05T07:04:52;99561.44;;;24.64;54.15
80410;BME280;69746;45.596;10.154;2023-06-05T07:07:22;99571.44;;;24.65;54.22
80410;BME280;69746;45.596;10.154;2023-06-05T07:09:49;99570.63;;;24.65;54.25
80410;BME280;69746;45.596;10.154;2023-06-05T07:12:18;99573.41;;;24.65;54.20
80410;BME280;69746;45.596;10.154;2023-06-05T07:14:46;99570.63;;;24.65;54.13
80410;BME280;69746;45.596;10.154;2023-06-05T07:17:12;99577.34;;;24.64;54.41
80410;BME280;69746;45.596;10.154;2023-06-05T07:19:39;99580.16;;;24.64;54.09
80410;BME280;69746;45.596;10.154;2023-06-05T07:22:07;99579.34;;;24.63;54.20
80410;BME280;69746;45.596;10.154;2023-06-05T07:24:38;99579.34;;;24.63;54.11
80410;BME280;69746;45.596;10.154;2023-06-05T07:27:05;99571.31;;;24.62;54.36
80410;BME280;69746;45.596;10.154;2023-06-05T07:29:34;99575.72;;;24.63;54.37
80410;BME280;69746;45.596;10.154;2023-06-05T07:32:00;99576.88;;;24.62;54.16
80410;BME280;69746;45.596;10.154;2023-06-05T07:34:28;99576.88;;;24.62;54.08
80410;BME280;69746;45.596;10.154;2023-06-05T07:36:54;99565.72;;;24.62;54.14
80410;BME280;69746;45.596;10.154;2023-06-05T07:39:22;99577.69;;;24.62;54.12
80410;BME280;69746;45.596;10.154;2023-06-05T07:41:48;99572.94;;;24.63;54.23
80410;BME280;69746;45.596;10.154;2023-06-05T07:44:15;99576.06;;;24.61;54.09
80410;BME280;69746;45.596;10.154;2023-06-05T07:46:42;99582.44;;;24.62;54.19
80410;BME280;69746;45.596;10.154;2023-06-05T07:49:08;99584.72;;;24.60;54.24
80410;BME280;69746;45.596;10.154;2023-06-05T07:51:35;99574.41;;;24.60;54.37
80410;BME280;69746;45.596;10.154;2023-06-05T07:54:06;99581.63;;;24.61;54.45
80410;BME280;69746;45.596;10.154;2023-06-05T07:56:32;99575.22;;;24.61;54.23
80410;BME280;69746;45.596;10.154;2023-06-05T07:59:00;99587.22;;;24.61;54.26
80410;BME280;69746;45.596;10.154;2023-06-05T08:01:29;99585.25;;;24.62;54.28
80410;BME280;69746;45.596;10.154;2023-06-05T08:03:56;99573.28;;;24.61;54.16
80410;BME280;69746;45.596;10.154;2023-06-05T08:06:24;99582.44;;;24.62;54.19
80410;BME280;69746;45.596;10.154;2023-06-05T08:08:50;99583.56;;;24.61;54.26
80410;BME280;69746;45.596;10.154;2023-06-05T08:11:17;99580.78;;;24.61;54.18
80410;BME280;69746;45.596;10.154;2023-06-05T08:13:44;99580.78;;;24.61;54.24
80410;BME280;69746;45.596;10.154;2023-06-05T08:16:10;99587.22;;;24.61;54.15
80410;BME280;69746;45.596;10.154;2023-06-05T08:18:38;99582.75;;;24.60;54.25
80410;BME280;69746;45.596;10.154;2023-06-05T08:21:04;99583.56;;;24.61;54.19
80410;BME280;69746;45.596;10.154;2023-06-05T08:23:31;99582.44;;;24.62;54.26
80410;BME280;69746;45.596;10.154;2023-06-05T08:25:58;99578.00;;;24.61;54.28
80410;BME280;69746;45.596;10.154;2023-06-05T08:28:25;99582.75;;;24.60;54.13
80410;BME280;69746;45.596;10.154;2023-06-05T08:30:51;99584.72;;;24.60;54.19
80410;BME280;69746;45.596;10.154;2023-06-05T08:33:19;99586.38;;;24.61;54.30
80410;BME280;69746;45.596;10.154;2023-06-05T08:35:45;99591.94;;;24.61;54.20
80410;BME280;69746;45.596;10.154;2023-06-05T08:38:11;99587.22;;;24.61;54.23
80410;BME280;69746;45.596;10.154;2023-06-05T08:40:39;99594.72;;;24.61;54.28
80410;BME280;69746;45.596;10.154;2023-06-05T08:43:05;99581.94;;;24.60;54.31
80410;BME280;69746;45.596;10.154;2023-06-05T08:45:31;99586.69;;;24.59;54.21
80410;BME280;69746;45.596;10.154;2023-06-05T08:48:00;99585.56;;;24.60;54.28
80410;BME280;69746;45.596;10.154;2023-06-05T08:50:28;99595.88;;;24.60;54.13
80410;BME280;69746;45.596;10.154;2023-06-05T08:52:59;99586.38;;;24.61;54.30
80410;BME280;69746;45.596;10.154;2023-06-05T08:55:27;99585.56;;;24.60;54.26
80410;BME280;69746;45.596;10.154;2023-06-05T08:57:56;99580.31;;;24.59;54.36
80410;BME280;69746;45.596;10.154;2023-06-05T09:00:22;99581.94;;;24.60;54.34
80410;BME280;69746;45.596;10.154;2023-06-05T09:02:49;99579.16;;;24.60;54.34
80410;BME280;69746;45.596;10.154;2023-06-05T09:05:15;99586.69;;;24.59;54.27
80410;BME280;69746;45.596;10.154;2023-06-05T09:07:41;99581.47;;;24.58;54.35
80410;BME280;69746;45.596;10.154;2023-06-05T09:10:23;99586.38;;;24.61;54.25
80410;BME280;69746;45.596;10.154;2023-06-05T09:12:58;99584.72;;;24.60;54.11
80410;BME280;69746;45.596;10.154;2023-06-05T09:15:26;99586.22;;;24.57;54.45
80410;BME280;69746;45.596;10.154;2023-06-05T09:18:11;99596.72;;;24.60;54.35
80410;BME280;69746;45.596;10.154;2023-06-05T09:20:40;99588.69;;;24.59;54.03
80410;BME280;69746;45.596;10.154;2023-06-05T09:23:27;99592.28;;;24.59;54.21
80410;BME280;69746;45.596;10.154;2023-06-05T09:25:56;99589.50;;;24.59;54.23
80410;BME280;69746;45.596;10.154;2023-06-05T09:28:23;99597.03;;;24.59;54.28
80410;BME280;69746;45.596;10.154;2023-06-05T09:31:00;99592.28;;;24.59;54.22
80410;BME280;69746;45.596;10.154;2023-06-05T09:33:30;99587.84;;;24.58;54.17
80410;BME280;69746;45.596;10.154;2023-06-05T09:36:05;99590.31;;;24.60;54.30
80410;BME280;69746;45.596;10.154;2023-06-05T09:38:41;99588.69;;;24.59;54.26
80410;BME280;69746;45.596;10.154;2023-06-05T09:41:08;99597.03;;;24.59;54.30
80410;BME280;69746;45.596;10.154;2023-06-05T09:43:35;99585.41;;;24.57;54.22
80410;BME280;69746;45.596;10.154;2023-06-05T09:46:10;99579.50;;;24.58;54.30
80410;BME280;69746;45.596;10.154;2023-06-05T09:48:37;99579.81;;;24.57;54.20
80410;BME280;69746;45.596;10.154;2023-06-05T09:51:11;99585.06;;;24.58;54.23
80410;BME280;69746;45.596;10.154;2023-06-05T09:53:42;99582.63;;;24.57;54.28
80410;BME280;69746;45.596;10.154;2023-06-05T09:56:13;99580.66;;;24.57;54.29
80410;BME280;69746;45.596;10.154;2023-06-05T09:58:45;99584.25;;;24.58;54.37
80410;BME280;69746;45.596;10.154;2023-06-05T10:01:17;99586.22;;;24.57;54.21
80410;BME280;69746;45.596;10.154;2023-06-05T10:06:19;99578.66;;;24.58;54.29
80410;BME280;69746;45.596;10.154;2023-06-05T10:08:50;99572.94;;;24.54;54.33
80410;BME280;69746;45.596;10.154;2023-06-05T10:11:21;99583.44;;;24.57;54.11
80410;BME280;69746;45.596;10.154;2023-06-05T10:13:48;99572.28;;;24.57;54.54
80410;BME280;69746;45.596;10.154;2023-06-05T10:16:19;99573.09;;;24.58;54.37
80410;BME280;69746;45.596;10.154;2023-06-05T10:18:49;99572.28;;;24.57;54.11
80410;BME280;69746;45.596;10.154;2023-06-05T10:21:17;99575.06;;;24.57;54.20
80410;BME280;69746;45.596;10.154;2023-06-05T10:23:48;99573.09;;;24.58;54.31
80410;BME280;69746;45.596;10.154;2023-06-05T10:32:07;99564.25;;;24.56;54.19
80410;BME280;69746;45.596;10.154;2023-06-05T10:37:30;99572.63;;;24.56;54.29
80410;BME280;69746;45.596;10.154;2023-06-05T10:40:00;99562.63;;;24.55;54.43
80410;BME280;69746;45.596;10.154;2023-06-05T10:42:27;99562.28;;;24.56;54.24
80410;BME280;69746;45.596;10.154;2023-06-05T10:44:55;99563.09;;;24.57;54.41
80410;BME280;69746;45.596;10.154;2023-06-05T10:50:25;99557.50;;;24.57;54.27
80410;BME280;69746;45.596;10.154;2023-06-05T10:52:54;99555.88;;;24.56;54.30
80410;BME280;69746;45.596;10.154;2023-06-05T10:55:27;99555.88;;;24.56;54.26
80410;BME280;69746;45.596;10.154;2023-06-05T10:58:09;99553.09;;;24.56;54.38
80410;BME280;69746;45.596;10.154;2023-06-05T11:03:58;99548.34;;;24.56;54.32
80410;BME280;69746;45.596;10.154;2023-06-05T11:06:27;99542.28;;;24.54;54.24
80410;BME280;69746;45.596;10.154;2023-06-05T11:09:14;99550.31;;;24.56;54.30
80410;BME280;69746;45.596;10.154;2023-06-05T11:11:57;99546.69;;;24.55;54.28
80410;BME280;69746;45.596;10.154;2023-06-05T11:14:56;99539.16;;;24.56;54.03
80410;BME280;69746;45.596;10.154;2023-06-05T11:17:32;99535.53;;;24.55;54.23
80410;BME280;69746;45.596;10.154;2023-06-05T11:19:59;99540.31;;;24.55;54.32
80410;BME280;69746;45.596;10.154;2023-06-05T11:22:25;99530.78;;;24.56;54.31
80410;BME280;69746;45.596;10.154;2023-06-05T11:27:46;99527.19;;;24.55;54.33
80410;BME280;69746;45.596;10.154;2023-06-05T11:30:18;99528.00;;;24.56;54.24
80410;BME280;69746;45.596;10.154;2023-06-05T11:32:45;99524.38;;;24.55;54.36
80410;BME280;69746;45.596;10.154;2023-06-05T11:35:11;99526.34;;;24.55;54.41
80410;BME280;69746;45.596;10.154;2023-06-05T11:37:38;99525.53;;;24.54;54.33
80410;BME280;69746;45.596;10.154;2023-06-05T11:40:06;99521.59;;;24.55;54.40
80410;BME280;69746;45.596;10.154;2023-06-05T11:42:36;99518.81;;;24.55;54.44
80410;BME280;69746;45.596;10.154;2023-06-05T11:45:02;99515.19;;;24.55;54.17
80410;BME280;69746;45.596;10.154;2023-06-05T11:47:28;99512.41;;;24.55;54.35
80410;BME280;69746;45.596;10.154;2023-06-05T11:50:10;99510.09;;;24.57;54.27
80410;BME280;69746;45.596;10.154;2023-06-05T11:52:40;99519.63;;;24.56;54.22
80410;BME280;69746;45.596;10.154;2023-06-05T11:55:13;99509.63;;;24.55;54.34
80410;BME280;69746;45.596;10.154;2023-06-05T11:57:44;99510.44;;;24.55;54.29
80410;BME280;69746;45.596;10.154;2023-06-05T12:00:13;99517.66;;;24.56;54.10
80410;BME280;69746;45.596;10.154;2023-06-05T12:02:43;99513.22;;;24.55;54.33
80410;BME280;69746;45.596;10.154;2023-06-05T12:05:10;99513.22;;;24.55;54.21
80410;BME280;69746;45.596;10.154;2023-06-05T12:07:37;99511.25;;;24.56;54.07
80410;BME280;69746;45.596;10.154;2023-06-05T12:10:07;99510.44;;;24.55;54.29
80410;BME280;69746;45.596;10.154;2023-06-05T12:12:34;99514.06;;;24.56;54.22
80410;BME280;69746;45.596;10.154;2023-06-05T12:15:14;99514.88;;;24.56;54.25
80410;BME280;69746;45.596;10.154;2023-06-05T12:17:52;99505.69;;;24.56;54.30
80410;BME280;69746;45.596;10.154;2023-06-05T12:20:19;99504.06;;;24.55;54.30
80410;BME280;69746;45.596;10.154;2023-06-05T12:22:48;99508.47;;;24.56;54.23
80410;BME280;69746;45.596;10.154;2023-06-05T12:25:20;99507.66;;;24.55;54.19
80410;BME280;69746;45.596;10.154;2023-06-05T12:27:52;99502.41;;;24.54;54.16
80410;BME280;69746;45.596;10.154;2023-06-05T12:30:19;99501.25;;;24.55;54.16
80410;BME280;69746;45.596;10.154;2023-06-05T12:32:45;99502.06;;;24.55;54.14
80410;BME280;69746;45.596;10.154;2023-06-05T12:35:22;99499.28;;;24.55;54.19
80410;BME280;69746;45.596;10.154;2023-06-05T12:37:49;99502.91;;;24.56;54.25
80410;BME280;69746;45.596;10.154;2023-06-05T12:40:17;99499.28;;;24.55;54.25
80410;BME280;69746;45.596;10.154;2023-06-05T12:42:47;99488.13;;;24.55;54.25
80410;BME280;69746;45.596;10.154;2023-06-05T12:45:14;99488.13;;;24.55;54.29
80410;BME280;69746;45.596;10.154;2023-06-05T12:47:41;99488.13;;;24.55;54.30
80410;BME280;69746;45.596;10.154;2023-06-05T12:50:09;99488.13;;;24.55;54.26
80410;BME280;69746;45.596;10.154;2023-06-05T12:52:40;99481.75;;;24.55;54.19
80410;BME280;69746;45.596;10.154;2023-06-05T12:55:08;99470.59;;;24.55;54.22
80410;BME280;69746;45.596;10.154;2023-06-05T12:57:34;99477.78;;;24.56;54.26
80410;BME280;69746;45.596;10.154;2023-06-05T13:00:04;99477.78;;;24.56;54.24
80410;BME280;69746;45.596;10.154;2023-06-05T13:02:37;99476.97;;;24.55;54.20
80410;BME280;69746;45.596;10.154;2023-06-05T13:05:03;99477.78;;;24.56;54.17
80410;BME280;69746;45.596;10.154;2023-06-05T13:07:30;99483.38;;;24.56;54.25
80410;BME280;69746;45.596;10.154;2023-06-05T13:09:57;99475.81;;;24.56;54.11
80410;BME280;69746;45.596;10.154;2023-06-05T13:12:22;99481.41;;;24.56;54.14
80410;BME280;69746;45.596;10.154;2023-06-05T13:14:48;99477.78;;;24.56;54.21
80410;BME280;69746;45.596;10.154;2023-06-05T13:17:15;99477.78;;;24.56;54.13